Time;durP1;ratioP1;P1;durP2;ratioP2;P2;SDS_P1;SDS_P2;PMS_P1;PMS_P2;Temp;Humidity;BMP_temperature;BMP_pressure;BME280_temperature;BME280_humidity;BME280_pressure;Samples;Min_cycle;Max_cycle;Signal;HPM_P1;HPM_P2
2022/05/08 00:00:35;;;;;;;31.42;15.40;;;9.50;99.90;;;;;;5065985;28;20465;-67
2022/05/08 00:03:01;;;;;;;29.85;14.90;;;9.50;99.90;;;;;;5064436;28;20458;-68
2022/05/08 00:05:27;;;;;;;28.40;15.05;;;9.60;99.90;;;;;;5066279;28;20036;-67
2022/05/08 00:07:53;;;;;;;27.92;16.15;;;9.60;99.90;;;;;;5070494;28;20028;-67
2022/05/08 00:10:19;;;;;;;33.85;15.55;;;9.70;99.90;;;;;;5049740;28;20040;-67
2022/05/08 00:12:45;;;;;;;26.15;15.65;;;9.80;99.90;;;;;;5068031;28;20025;-68
2022/05/08 00:15:11;;;;;;;26.70;15.60;;;9.70;99.90;;;;;;5066826;28;20035;-68
2022/05/08 00:17:37;;;;;;;30.25;16.98;;;9.60;99.90;;;;;;5068608;28;20397;-68
2022/05/08 00:20:06;;;;;;;28.10;14.90;;;9.40;99.90;;;;;;5068205;28;20046;-67
2022/05/08 00:22:32;;;;;;;30.70;15.63;;;9.30;99.90;;;;;;5067726;28;20448;-67
2022/05/08 00:24:59;;;;;;;31.27;15.15;;;9.40;99.90;;;;;;5069386;28;20052;-68
2022/05/08 00:27:24;;;;;;;28.05;15.63;;;9.30;99.90;;;;;;5067669;28;20064;-66
2022/05/08 00:29:50;;;;;;;26.88;14.45;;;9.20;99.90;;;;;;5069630;28;20052;-67
2022/05/08 00:32:16;;;;;;;24.65;14.40;;;9.10;99.90;;;;;;5068177;28;20575;-69
2022/05/08 00:34:41;;;;;;;23.17;13.48;;;9.00;99.90;;;;;;5062580;28;20173;-68
2022/05/08 00:37:07;;;;;;;24.90;14.00;;;8.90;99.90;;;;;;5067765;28;20028;-68
2022/05/08 00:39:32;;;;;;;25.42;14.82;;;8.90;99.90;;;;;;5069021;28;20075;-68
2022/05/08 00:41:59;;;;;;;27.00;15.40;;;9.00;99.90;;;;;;5068657;28;20028;-68
2022/05/08 00:44:25;;;;;;;30.65;15.85;;;9.10;99.90;;;;;;5068526;28;20468;-66
2022/05/08 00:46:51;;;;;;;25.88;14.93;;;9.10;99.90;;;;;;5067436;28;20067;-67
2022/05/08 00:49:16;;;;;;;26.52;14.88;;;9.20;99.90;;;;;;5069957;28;20048;-68
2022/05/08 00:51:47;;;;;;;31.55;15.18;;;9.10;99.90;;;;;;5067342;28;20036;-69
2022/05/08 00:54:13;;;;;;;28.70;15.20;;;9.00;99.90;;;;;;5068728;28;20067;-68
2022/05/08 00:56:40;;;;;;;29.33;16.48;;;8.90;99.90;;;;;;5065955;28;20433;-67
2022/05/08 00:59:05;;;;;;;27.63;15.18;;;8.90;99.90;;;;;;5068030;28;20661;-68
2022/05/08 01:01:31;;;;;;;28.92;16.05;;;9.00;99.90;;;;;;5066805;28;20028;-68
2022/05/08 01:03:57;;;;;;;24.95;14.57;;;9.00;99.90;;;;;;5066371;28;20039;-67
2022/05/08 01:06:23;;;;;;;29.17;15.50;;;9.00;99.90;;;;;;5069688;28;20020;-68
2022/05/08 01:08:50;;;;;;;28.33;14.88;;;8.90;99.90;;;;;;5066812;28;20036;-68
2022/05/08 01:11:17;;;;;;;28.25;15.60;;;8.80;99.90;;;;;;5068749;28;20035;-67
2022/05/08 01:13:44;;;;;;;27.20;15.05;;;8.80;99.90;;;;;;5067560;28;20488;-69
2022/05/08 01:16:15;;;;;;;27.80;14.65;;;8.80;99.90;;;;;;5068443;28;20040;-68
2022/05/08 01:18:43;;;;;;;23.92;13.75;;;8.80;99.90;;;;;;5064972;28;20040;-68
2022/05/08 01:21:10;;;;;;;24.95;13.73;;;8.80;99.90;;;;;;5067881;28;20036;-68
2022/05/08 01:23:39;;;;;;;30.35;15.10;;;8.80;99.90;;;;;;5066673;28;20453;-68
2022/05/08 01:26:05;;;;;;;22.88;13.85;;;8.80;99.90;;;;;;5067613;28;20043;-68
2022/05/08 01:28:31;;;;;;;27.55;15.13;;;8.80;99.90;;;;;;5067433;28;20036;-66
2022/05/08 01:30:57;;;;;;;25.42;14.45;;;8.80;99.90;;;;;;5067474;28;20446;-67
2022/05/08 01:33:23;;;;;;;37.40;14.52;;;8.80;99.90;;;;;;5069563;28;20126;-69
2022/05/08 01:35:50;;;;;;;27.77;14.25;;;8.70;99.90;;;;;;5066376;28;20108;-67
2022/05/08 01:38:21;;;;;;;27.90;14.73;;;8.70;99.90;;;;;;5067401;28;20060;-67
2022/05/08 01:40:48;;;;;;;26.75;14.40;;;8.60;99.90;;;;;;5068640;28;20032;-68
2022/05/08 01:43:13;;;;;;;25.30;15.00;;;8.70;99.90;;;;;;5064674;28;20025;-68
2022/05/08 01:45:40;;;;;;;30.23;15.32;;;8.60;99.90;;;;;;5067377;28;20640;-68
2022/05/08 01:48:22;;;;;;;25.95;14.38;;;8.60;99.90;;;;;;5066822;28;20041;-67
2022/05/08 01:50:55;;;;;;;27.25;14.48;;;8.60;99.90;;;;;;5068449;28;20111;-68
2022/05/08 01:53:23;;;;;;;28.83;15.18;;;8.60;99.90;;;;;;5053806;28;20037;-68
2022/05/08 01:55:52;;;;;;;25.88;14.55;;;8.60;99.90;;;;;;5062474;28;20104;-68
2022/05/08 01:58:18;;;;;;;27.92;14.48;;;8.50;99.90;;;;;;5067351;28;20044;-69
2022/05/08 02:00:44;;;;;;;27.70;14.85;;;8.50;99.90;;;;;;5068452;28;20031;-69
2022/05/08 02:03:10;;;;;;;25.20;14.60;;;8.50;99.90;;;;;;5067056;28;20047;-67
2022/05/08 02:05:40;;;;;;;28.13;15.15;;;8.50;99.90;;;;;;5063078;28;20124;-67
2022/05/08 02:08:06;;;;;;;30.08;14.88;;;8.40;99.90;;;;;;5064648;28;20028;-67
2022/05/08 02:10:31;;;;;;;27.08;14.40;;;8.40;99.90;;;;;;5068642;28;20090;-66
2022/05/08 02:12:57;;;;;;;30.85;16.15;;;8.40;99.90;;;;;;5066187;28;20040;-68
2022/05/08 02:15:29;;;;;;;31.40;15.55;;;8.30;99.90;;;;;;5067921;28;20104;-68
2022/05/08 02:17:57;;;;;;;29.08;14.82;;;8.30;99.90;;;;;;5065654;28;20028;-68
2022/05/08 02:20:23;;;;;;;29.02;15.30;;;8.30;99.90;;;;;;5066806;28;20078;-68
2022/05/08 02:22:49;;;;;;;28.33;15.45;;;8.30;99.90;;;;;;5067388;28;20024;-68
2022/05/08 02:25:15;;;;;;;30.30;15.95;;;8.40;99.90;;;;;;5065260;28;20032;-68
2022/05/08 02:27:42;;;;;;;28.92;15.27;;;8.30;99.90;;;;;;5060056;28;20032;-69
2022/05/08 02:30:09;;;;;;;26.75;14.73;;;8.20;99.90;;;;;;5065984;28;20029;-66
2022/05/08 02:32:36;;;;;;;27.58;15.50;;;8.10;99.90;;;;;;5054663;28;20041;-66
2022/05/08 02:35:02;;;;;;;27.65;15.65;;;8.10;99.90;;;;;;5065883;28;20028;-68
2022/05/08 02:37:28;;;;;;;26.38;14.75;;;8.10;99.90;;;;;;5061949;28;20161;-68
2022/05/08 02:39:54;;;;;;;27.60;14.48;;;8.10;99.90;;;;;;5066609;28;20032;-68
2022/05/08 02:42:19;;;;;;;26.38;14.60;;;8.00;99.90;;;;;;5053815;28;20037;-67
2022/05/08 02:44:45;;;;;;;31.88;17.13;;;8.00;99.90;;;;;;5068186;28;20074;-69
2022/05/08 02:47:11;;;;;;;31.67;16.48;;;8.00;99.90;;;;;;5063357;28;20064;-68
2022/05/08 02:49:37;;;;;;;30.42;16.30;;;8.00;99.90;;;;;;5069249;28;20057;-66
2022/05/08 02:52:03;;;;;;;32.97;16.45;;;8.00;99.90;;;;;;5068929;28;20040;-68
2022/05/08 02:54:28;;;;;;;30.88;16.33;;;8.00;99.90;;;;;;5064105;28;20036;-67
2022/05/08 02:59:38;;;;;;;30.92;15.43;;;8.00;99.90;;;;;;5066602;28;20100;-67
2022/05/08 03:02:04;;;;;;;28.08;15.82;;;7.90;99.90;;;;;;5061871;28;20029;-68
2022/05/08 03:04:29;;;;;;;29.00;14.60;;;7.90;99.90;;;;;;5069666;28;21646;-68
2022/05/08 03:06:55;;;;;;;26.52;14.48;;;7.90;99.90;;;;;;5068646;28;20036;-66
2022/05/08 03:09:21;;;;;;;26.02;14.65;;;7.80;99.90;;;;;;5070199;28;20040;-68
2022/05/08 03:11:46;;;;;;;28.00;15.23;;;7.70;99.90;;;;;;5069122;28;20032;-67
2022/05/08 03:14:12;;;;;;;28.33;14.93;;;7.70;99.90;;;;;;5060281;28;20065;-66
2022/05/08 03:16:38;;;;;;;30.23;16.15;;;7.70;99.90;;;;;;5069524;28;20052;-65
2022/05/08 03:19:04;;;;;;;28.00;15.15;;;7.70;99.90;;;;;;5063433;28;20037;-66
2022/05/08 03:21:30;;;;;;;30.45;14.98;;;7.70;99.90;;;;;;5070680;28;20046;-68
2022/05/08 03:23:56;;;;;;;29.27;15.63;;;7.80;99.90;;;;;;5058410;28;20647;-67
2022/05/08 03:26:21;;;;;;;33.63;16.67;;;7.80;99.90;;;;;;5063176;28;20059;-66
2022/05/08 03:28:47;;;;;;;28.08;15.43;;;7.90;99.90;;;;;;5060287;28;20465;-68
2022/05/08 03:31:14;;;;;;;32.65;15.32;;;7.90;99.90;;;;;;5059658;28;20029;-68
2022/05/08 03:33:40;;;;;;;28.38;15.18;;;7.90;99.90;;;;;;5062872;28;20029;-65
2022/05/08 03:36:10;;;;;;;29.13;15.80;;;7.80;99.90;;;;;;5066746;28;20052;-67
2022/05/08 03:38:40;;;;;;;27.48;14.93;;;7.80;99.90;;;;;;5065436;28;20056;-66
2022/05/08 03:41:07;;;;;;;27.85;14.85;;;7.70;99.90;;;;;;5069424;28;20483;-68
2022/05/08 03:43:34;;;;;;;31.83;15.75;;;7.60;99.90;;;;;;5068927;28;20029;-67
2022/05/08 03:46:00;;;;;;;27.67;15.10;;;7.60;99.90;;;;;;5066389;28;20032;-66
2022/05/08 03:48:26;;;;;;;28.75;15.80;;;7.60;99.90;;;;;;5062211;28;20040;-67
2022/05/08 03:50:51;;;;;;;28.92;14.93;;;7.60;99.90;;;;;;5060378;28;20031;-67
2022/05/08 03:53:17;;;;;;;32.42;15.60;;;7.70;99.90;;;;;;5069546;28;20033;-66
2022/05/08 03:55:43;;;;;;;28.38;15.27;;;7.70;99.90;;;;;;5065959;28;20100;-67
2022/05/08 03:58:08;;;;;;;31.75;15.23;;;7.70;99.90;;;;;;5070705;28;20112;-67
2022/05/08 04:00:34;;;;;;;25.17;13.75;;;7.70;99.90;;;;;;5041431;28;20025;-68
2022/05/08 04:03:01;;;;;;;31.60;15.27;;;7.70;99.90;;;;;;5067905;28;20032;-67
2022/05/08 04:05:27;;;;;;;31.17;14.45;;;7.70;99.90;;;;;;5067801;28;20039;-67
2022/05/08 04:07:52;;;;;;;27.13;15.30;;;7.70;99.90;;;;;;5066694;28;20037;-66
2022/05/08 04:10:18;;;;;;;24.90;13.95;;;7.70;99.90;;;;;;5070088;28;20090;-66
2022/05/08 04:12:44;;;;;;;29.55;14.40;;;7.60;99.90;;;;;;5066898;28;20081;-66
2022/05/08 04:17:55;;;;;;;28.25;14.93;;;7.40;99.90;;;;;;5065856;28;20039;-65
2022/05/08 04:20:20;;;;;;;27.13;15.07;;;7.50;99.90;;;;;;5044117;28;20032;-66
2022/05/08 04:25:30;;;;;;;27.65;15.07;;;7.50;99.90;;;;;;5062920;28;21412;-69
2022/05/08 04:27:56;;;;;;;31.88;15.15;;;7.50;99.90;;;;;;5066190;28;20111;-67
2022/05/08 04:30:21;;;;;;;30.98;15.02;;;7.50;99.90;;;;;;5066315;28;20381;-67
2022/05/08 04:32:47;;;;;;;26.35;14.43;;;7.50;99.90;;;;;;5066139;28;20097;-66
2022/05/08 04:35:12;;;;;;;24.67;14.10;;;7.50;99.90;;;;;;5062835;28;20025;-67
2022/05/08 04:37:38;;;;;;;25.80;14.32;;;7.50;99.90;;;;;;5064599;28;20056;-66
2022/05/08 04:40:06;;;;;;;26.15;13.88;;;7.50;99.90;;;;;;5067159;28;20033;-67
2022/05/08 04:42:31;;;;;;;25.40;14.13;;;7.40;99.90;;;;;;5058158;28;20029;-67
2022/05/08 04:44:59;;;;;;;27.73;15.10;;;7.30;99.90;;;;;;5056701;28;20465;-67
2022/05/08 04:47:25;;;;;;;28.70;15.15;;;7.40;99.90;;;;;;5067048;28;20058;-67
2022/05/08 04:49:51;;;;;;;30.40;16.58;;;7.50;99.90;;;;;;5068220;28;20110;-67
2022/05/08 04:52:17;;;;;;;26.92;14.95;;;7.60;99.90;;;;;;5068539;28;20474;-67
2022/05/08 04:54:43;;;;;;;29.30;15.38;;;7.60;99.90;;;;;;5066408;28;20025;-65
2022/05/08 04:57:09;;;;;;;30.50;15.60;;;7.60;99.90;;;;;;5063814;28;20029;-68
2022/05/08 04:59:35;;;;;;;27.05;14.70;;;7.50;99.90;;;;;;5058651;28;20033;-65
2022/05/08 05:02:02;;;;;;;30.58;14.32;;;7.60;99.90;;;;;;5062348;28;20024;-67
2022/05/08 05:04:28;;;;;;;26.88;14.98;;;7.70;99.90;;;;;;5036663;28;20059;-66
2022/05/08 05:06:54;;;;;;;27.35;14.52;;;7.80;99.90;;;;;;5058831;28;20215;-68
2022/05/08 05:09:20;;;;;;;28.95;14.98;;;7.80;99.90;;;;;;5067241;28;20124;-68
2022/05/08 05:11:45;;;;;;;32.03;16.60;;;7.80;99.90;;;;;;5065722;28;20029;-64
2022/05/08 05:14:11;;;;;;;30.40;15.90;;;7.90;99.90;;;;;;5064667;28;20025;-67
2022/05/08 05:16:37;;;;;;;29.17;15.65;;;7.90;99.90;;;;;;5047954;28;20495;-67
2022/05/08 05:19:04;;;;;;;29.63;16.02;;;8.00;99.90;;;;;;5039481;28;20086;-67
2022/05/08 05:21:30;;;;;;;27.50;14.60;;;8.10;99.90;;;;;;5068730;28;20028;-67
2022/05/08 05:23:56;;;;;;;24.45;13.43;;;8.20;99.90;;;;;;5064199;28;20032;-66
2022/05/08 05:26:22;;;;;;;29.73;14.02;;;8.20;99.90;;;;;;5069641;28;20036;-67
2022/05/08 05:28:48;;;;;;;29.08;14.57;;;8.30;99.90;;;;;;5065767;28;20033;-66
2022/05/08 05:31:14;;;;;;;24.30;13.95;;;8.30;99.90;;;;;;5038500;28;20040;-67
2022/05/08 05:33:40;;;;;;;26.15;14.57;;;8.30;99.90;;;;;;5060103;28;20587;-67
2022/05/08 05:36:06;;;;;;;26.88;14.32;;;8.30;99.90;;;;;;5067319;28;20024;-67
2022/05/08 05:38:33;;;;;;;30.92;14.93;;;8.40;99.90;;;;;;5063805;28;20064;-68
2022/05/08 05:40:59;;;;;;;29.83;14.20;;;8.40;99.90;;;;;;5057767;28;20461;-68
2022/05/08 05:43:24;;;;;;;27.25;14.57;;;8.50;99.90;;;;;;5063303;28;20085;-65
2022/05/08 05:47:49;;;;;;;27.02;14.52;;;8.50;99.90;;;;;;5066321;28;20059;-67
2022/05/08 05:48:37;;;;;;;26.67;13.95;;;8.60;99.90;;;;;;5060935;28;20036;-67
2022/05/08 05:51:03;;;;;;;25.38;14.32;;;8.60;99.90;;;;;;5066378;28;20032;-67
2022/05/08 05:53:29;;;;;;;25.60;13.45;;;8.50;99.90;;;;;;5063767;28;20037;-68
2022/05/08 05:56:00;;;;;;;27.17;14.35;;;8.50;99.90;;;;;;5060188;28;20033;-66
2022/05/08 05:58:26;;;;;;;27.95;15.52;;;8.70;99.90;;;;;;5063370;28;20400;-66
2022/05/08 06:00:51;;;;;;;26.10;14.30;;;8.70;99.90;;;;;;5066550;28;20040;-67
2022/05/08 06:03:17;;;;;;;26.65;15.00;;;8.60;99.90;;;;;;5063257;28;20112;-66
2022/05/08 06:05:43;;;;;;;26.92;15.20;;;8.70;99.90;;;;;;5059347;28;20024;-68
2022/05/08 06:08:09;;;;;;;26.77;15.38;;;8.80;99.90;;;;;;5064808;28;20043;-66
2022/05/08 06:10:35;;;;;;;27.45;15.45;;;8.90;99.90;;;;;;5066910;28;20124;-67
2022/05/08 06:13:02;;;;;;;27.95;15.45;;;9.10;99.90;;;;;;5070299;28;20159;-66
2022/05/08 06:15:27;;;;;;;28.75;15.88;;;9.20;99.90;;;;;;5064932;28;20036;-68
2022/05/08 06:17:53;;;;;;;27.80;15.10;;;9.30;99.90;;;;;;5066639;28;20389;-68
2022/05/08 06:20:19;;;;;;;29.77;16.95;;;9.30;99.90;;;;;;5068610;28;20044;-66
2022/05/08 06:22:45;;;;;;;29.25;16.27;;;9.30;99.90;;;;;;5069460;28;20033;-66
2022/05/08 06:25:12;;;;;;;26.95;15.48;;;9.40;99.90;;;;;;5068940;28;20078;-67
2022/05/08 06:27:37;;;;;;;29.10;15.95;;;9.50;99.90;;;;;;5069694;28;20113;-68
2022/05/08 06:30:04;;;;;;;33.10;16.45;;;9.70;99.90;;;;;;5065724;28;20169;-67
2022/05/08 06:32:29;;;;;;;31.20;17.33;;;9.80;99.90;;;;;;5064032;28;20101;-66
2022/05/08 06:34:55;;;;;;;31.23;17.00;;;9.90;99.90;;;;;;5062828;28;20480;-67
2022/05/08 06:37:21;;;;;;;33.45;17.02;;;10.00;99.90;;;;;;5065617;28;20500;-68
2022/05/08 06:39:46;;;;;;;31.25;16.45;;;10.00;99.90;;;;;;5061878;28;20044;-67
2022/05/08 06:42:12;;;;;;;34.08;17.67;;;10.00;99.90;;;;;;5060096;28;20039;-67
2022/05/08 06:44:38;;;;;;;32.83;16.70;;;10.00;99.90;;;;;;5068073;28;20154;-66
2022/05/08 06:47:04;;;;;;;29.70;17.05;;;10.00;99.90;;;;;;5060755;28;20029;-67
2022/05/08 06:49:30;;;;;;;31.38;16.70;;;10.10;99.90;;;;;;5066546;28;20034;-69
2022/05/08 06:51:56;;;;;;;31.10;17.08;;;10.20;99.90;;;;;;5070534;28;20032;-67
2022/05/08 06:54:21;;;;;;;30.13;16.98;;;10.30;99.90;;;;;;5071720;28;20060;-68
2022/05/08 06:56:47;;;;;;;35.28;17.88;;;10.50;99.90;;;;;;5062426;28;20051;-65
2022/05/08 07:01:57;;;;;;;30.50;17.90;;;10.80;99.90;;;;;;5069828;28;20594;-67
2022/05/08 07:04:22;;;;;;;42.55;20.13;;;10.90;99.90;;;;;;5071656;28;20108;-67
2022/05/08 07:06:50;;;;;;;32.97;18.60;;;11.00;99.90;;;;;;5051385;28;20035;-66
2022/05/08 07:09:15;;;;;;;31.30;17.83;;;11.10;99.90;;;;;;5062555;28;20135;-66
2022/05/08 07:11:44;;;;;;;31.77;18.50;;;11.10;99.90;;;;;;5062411;28;20516;-68
2022/05/08 07:14:10;;;;;;;33.13;18.98;;;11.10;99.90;;;;;;5062086;28;20024;-68
2022/05/08 07:16:36;;;;;;;34.03;18.00;;;11.20;99.90;;;;;;5070624;28;20073;-68
2022/05/08 07:19:02;;;;;;;34.10;19.00;;;11.30;99.90;;;;;;5067066;28;20036;-68
2022/05/08 07:21:27;;;;;;;30.02;17.67;;;11.50;99.90;;;;;;5066140;28;20064;-68
2022/05/08 07:23:55;;;;;;;34.30;19.27;;;11.70;99.90;;;;;;5067954;28;20032;-67
2022/05/08 07:26:20;;;;;;;38.47;22.00;;;11.90;99.90;;;;;;5064406;28;20029;-68
2022/05/08 07:28:46;;;;;;;38.88;21.90;;;12.00;99.90;;;;;;5060945;28;20059;-66
2022/05/08 07:31:12;;;;;;;42.13;22.50;;;12.00;99.90;;;;;;5062200;28;20127;-68
2022/05/08 07:33:38;;;;;;;39.97;22.48;;;12.20;99.90;;;;;;5062032;28;20029;-67
2022/05/08 07:36:15;;;;;;;39.28;22.83;;;12.30;99.90;;;;;;5064096;28;20029;-66
2022/05/08 07:38:44;;;;;;;37.05;21.58;;;12.30;99.90;;;;;;5065030;28;20075;-68
2022/05/08 07:41:15;;;;;;;43.28;24.45;;;12.50;99.90;;;;;;5070286;28;20622;-67
2022/05/08 07:43:41;;;;;;;;;;;12.70;99.90;;;;;;5068338;28;20029;-68
2022/05/08 07:46:06;;;;;;;38.65;20.38;;;12.90;99.90;;;;;;5063488;28;19938;-67
2022/05/08 07:48:33;;;;;;;36.63;20.85;;;13.00;99.90;;;;;;5065068;28;20036;-68
2022/05/08 07:51:00;;;;;;;38.13;20.77;;;13.10;99.90;;;;;;5064155;28;20020;-67
2022/05/08 07:53:30;;;;;;;40.58;21.92;;;13.20;99.90;;;;;;5068196;28;20040;-68
2022/05/08 07:55:57;;;;;;;34.80;19.80;;;13.30;99.90;;;;;;5063689;28;20036;-70
2022/05/08 07:58:24;;;;;;;32.42;18.85;;;13.50;99.90;;;;;;5063206;28;20043;-68
2022/05/08 08:00:53;;;;;;;32.83;17.48;;;13.70;99.90;;;;;;5058167;28;20024;-68
2022/05/08 08:03:20;;;;;;;30.27;17.02;;;13.80;99.90;;;;;;5067148;28;20033;-68
2022/05/08 08:05:47;;;;;;;29.42;16.55;;;13.90;99.90;;;;;;5062499;28;20450;-66
2022/05/08 08:08:14;;;;;;;28.30;16.80;;;14.10;99.90;;;;;;5069160;28;20071;-67
2022/05/08 08:10:40;;;;;;;28.77;16.25;;;14.30;99.90;;;;;;5069125;28;20043;-67
2022/05/08 08:13:06;;;;;;;27.33;17.00;;;14.30;99.90;;;;;;5068389;28;20032;-67
2022/05/08 08:15:32;;;;;;;30.30;16.70;;;14.30;99.90;;;;;;5069594;28;20060;-67
2022/05/08 08:17:57;;;;;;;26.92;16.40;;;14.30;99.90;;;;;;5069152;28;20472;-68
2022/05/08 08:20:23;;;;;;;27.83;16.48;;;14.40;99.90;;;;;;5069111;28;20027;-68
2022/05/08 08:22:49;;;;;;;27.58;16.52;;;14.50;99.90;;;;;;5051897;28;20039;-68
2022/05/08 08:25:14;;;;;;;24.27;14.90;;;14.70;99.90;;;;;;5068910;28;20616;-67
2022/05/08 08:27:40;;;;;;;26.42;15.15;;;14.80;99.90;;;;;;5061734;28;20478;-69
2022/05/08 08:30:07;;;;;;;25.35;15.00;;;14.90;99.90;;;;;;5060184;28;20060;-66
2022/05/08 08:32:33;;;;;;;25.63;14.90;;;15.10;99.90;;;;;;5069455;28;20116;-68
2022/05/08 08:34:59;;;;;;;24.63;14.75;;;15.10;99.90;;;;;;5060621;28;20032;-68
2022/05/08 08:37:25;;;;;;;27.52;14.73;;;15.30;99.90;;;;;;5069219;28;20056;-67
2022/05/08 08:39:50;;;;;;;24.20;14.10;;;15.40;99.90;;;;;;5067386;28;20060;-67
2022/05/08 08:42:29;;;;;;;26.60;14.43;;;15.50;99.90;;;;;;5067424;28;20028;-68
2022/05/08 08:48:06;;;;;;;24.50;13.85;;;15.90;99.90;;;;;;5069524;28;20027;-66
2022/05/08 08:50:33;;;;;;;23.20;13.25;;;16.00;99.90;;;;;;5067857;28;20075;-67
2022/05/08 08:53:01;;;;;;;24.25;13.20;;;16.00;99.90;;;;;;5058380;28;20457;-68
2022/05/08 08:55:27;;;;;;;21.27;12.65;;;16.00;99.90;;;;;;5063676;28;20025;-68
2022/05/08 08:57:53;;;;;;;20.40;12.43;;;16.20;99.90;;;;;;5065133;28;20036;-67
2022/05/08 09:00:20;;;;;;;19.05;12.13;;;16.10;99.90;;;;;;5067901;28;20036;-68
2022/05/08 09:02:50;;;;;;;17.05;11.82;;;16.30;99.90;;;;;;5060858;28;20052;-68
2022/05/08 09:05:16;;;;;;;22.60;11.98;;;16.40;99.90;;;;;;5060859;28;20032;-67
2022/05/08 09:07:50;;;;;;;18.48;11.10;;;16.50;99.90;;;;;;5068882;28;20071;-67
2022/05/08 09:10:22;;;;;;;18.42;11.93;;;16.60;99.90;;;;;;5067201;28;20049;-67
2022/05/08 09:12:56;;;;;;;21.90;11.30;;;16.80;99.90;;;;;;5067942;28;20097;-68
2022/05/08 09:15:27;;;;;;;15.63;10.25;;;17.00;99.90;;;;;;5068207;28;20035;-68
2022/05/08 09:17:58;;;;;;;17.20;10.10;;;16.80;99.90;;;;;;5061819;28;20102;-67
2022/05/08 09:20:34;;;;;;;16.90;10.10;;;16.80;99.90;;;;;;5068871;28;20100;-68
2022/05/08 09:23:14;;;;;;;20.15;10.45;;;16.90;99.90;;;;;;5068202;28;20033;-66
2022/05/08 09:25:48;;;;;;;16.77;9.88;;;17.10;99.90;;;;;;5067023;28;20527;-67
2022/05/08 09:28:15;;;;;;;14.75;9.50;;;17.10;99.90;;;;;;5068131;28;20031;-68
2022/05/08 09:31:05;;;;;;;19.92;10.05;;;17.20;99.90;;;;;;5068925;28;20066;-68
2022/05/08 09:33:38;;;;;;;15.75;9.45;;;17.30;99.90;;;;;;5056023;28;20793;-67
2022/05/08 09:36:24;;;;;;;16.90;9.75;;;17.30;99.90;;;;;;5064742;28;20038;-67
2022/05/08 09:38:54;;;;;;;17.10;9.57;;;17.40;99.90;;;;;;5062533;28;20048;-69
2022/05/08 09:41:42;;;;;;;14.88;9.52;;;17.50;99.90;;;;;;5067901;28;20024;-68
2022/05/08 09:44:16;;;;;;;16.55;9.55;;;17.60;99.90;;;;;;5048190;28;20044;-68
2022/05/08 09:46:46;;;;;;;15.73;9.23;;;17.50;99.90;;;;;;5061502;28;20031;-69
2022/05/08 09:49:13;;;;;;;;;;;17.30;99.90;;;;;;5068160;28;20384;-66
2022/05/08 09:51:42;;;;;;;14.57;9.07;;;17.20;99.90;;;;;;5068581;28;20015;-66
2022/05/08 09:54:08;;;;;;;13.95;9.30;;;17.40;99.90;;;;;;5067285;28;20047;-69
2022/05/08 09:56:35;;;;;;;15.23;9.40;;;17.40;99.90;;;;;;5068722;28;20033;-69
2022/05/08 09:59:01;;;;;;;15.25;9.77;;;17.50;99.90;;;;;;5066141;28;20032;-67
2022/05/08 10:01:27;;;;;;;18.80;9.38;;;17.50;99.90;;;;;;5067384;28;20054;-68
2022/05/08 10:03:55;;;;;;;16.33;9.13;;;17.50;99.90;;;;;;5067736;28;20028;-68
2022/05/08 10:06:21;;;;;;;14.77;9.25;;;17.50;99.90;;;;;;5058287;28;20087;-69
2022/05/08 10:08:48;;;;;;;18.10;8.77;;;17.40;99.90;;;;;;5060355;28;20040;-68
2022/05/08 10:14:05;;;;;;;14.73;9.23;;;17.40;99.90;;;;;;5066696;28;20048;-66
2022/05/08 10:16:49;;;;;;;14.20;8.82;;;17.40;99.90;;;;;;5068231;28;20078;-68
2022/05/08 10:19:21;;;;;;;13.63;8.35;;;17.50;99.90;;;;;;5067751;28;20115;-69
2022/05/08 10:21:56;;;;;;;15.85;9.13;;;17.50;99.90;;;;;;5068140;28;20120;-67
2022/05/08 10:24:28;;;;;;;14.73;8.95;;;17.70;99.90;;;;;;5063597;28;20033;-69
2022/05/08 10:27:14;;;;;;;14.70;8.68;;;17.80;99.90;;;;;;5068166;28;20460;-67
2022/05/08 10:30:02;;;;;;;14.90;7.97;;;17.80;99.90;;;;;;5067779;28;20041;-68
2022/05/08 10:32:33;;;;;;;13.90;8.48;;;17.80;99.90;;;;;;5054936;28;20052;-67
2022/05/08 10:35:27;;;;;;;15.07;9.50;;;17.90;99.90;;;;;;5064064;28;20033;-69
2022/05/08 10:38:16;;;;;;;14.82;8.73;;;18.10;99.90;;;;;;5066511;28;20454;-68
2022/05/08 10:40:42;;;;;;;13.45;9.02;;;18.30;99.90;;;;;;5067803;28;20041;-68
2022/05/08 10:43:14;;;;;;;13.90;8.00;;;18.50;99.90;;;;;;5066438;28;20064;-68
2022/05/08 10:45:43;;;;;;;12.50;7.90;;;18.60;99.90;;;;;;5067896;28;20136;-69
2022/05/08 10:48:11;;;;;;;13.18;8.38;;;18.60;99.90;;;;;;5059440;28;20096;-69
2022/05/08 10:50:43;;;;;;;13.50;7.78;;;18.50;99.90;;;;;;5068153;28;20090;-67
2022/05/08 10:53:36;;;;;;;12.07;7.80;;;18.50;99.90;;;;;;5058437;28;20029;-69
2022/05/08 10:56:09;;;;;;;13.93;8.70;;;18.80;99.90;;;;;;5067022;28;20044;-69
2022/05/08 10:58:41;;;;;;;16.25;8.40;;;19.00;99.90;;;;;;5071680;28;20071;-69
2022/05/08 11:01:11;;;;;;;18.58;8.20;;;19.10;99.90;;;;;;5062207;28;20029;-70
2022/05/08 11:03:37;;;;;;;14.00;8.07;;;19.20;99.90;;;;;;5062373;28;20062;-69
2022/05/08 11:06:05;;;;;;;15.20;8.15;;;19.00;99.90;;;;;;5070688;28;20037;-68
2022/05/08 11:08:33;;;;;;;13.93;7.72;;;19.10;99.90;;;;;;5070985;28;20072;-67
2022/05/08 11:11:02;;;;;;;14.65;7.88;;;19.20;99.90;;;;;;5070845;28;20488;-69
2022/05/08 11:13:41;;;;;;;10.68;7.32;;;19.20;99.90;;;;;;5070040;28;20039;-68
2022/05/08 11:16:07;;;;;;;9.70;6.72;;;19.20;99.90;;;;;;5070862;28;20035;-68
2022/05/08 11:18:33;;;;;;;12.68;6.65;;;19.40;99.90;;;;;;5071340;28;20427;-68
2022/05/08 11:21:01;;;;;;;12.38;7.53;;;19.60;99.90;;;;;;5062883;28;20457;-68
2022/05/08 11:23:29;;;;;;;10.77;6.65;;;19.80;99.90;;;;;;5069511;28;20029;-69
2022/05/08 11:25:57;;;;;;;10.00;7.00;;;20.00;99.90;;;;;;5071114;28;20455;-67
2022/05/08 11:28:24;;;;;;;9.57;6.80;;;20.10;99.90;;;;;;5051795;28;20637;-69
2022/05/08 11:30:52;;;;;;;10.80;7.10;;;20.20;99.90;;;;;;5070846;28;20045;-69
2022/05/08 11:36:25;;;;;;;11.43;6.68;;;20.10;99.90;;;;;;5061581;28;20035;-68
2022/05/08 11:39:03;;;;;;;9.85;6.43;;;20.20;99.90;;;;;;5070491;28;20094;-69
2022/05/08 11:41:31;;;;;;;11.35;7.45;;;20.50;99.90;;;;;;5070267;28;20043;-69
2022/05/08 11:44:02;;;;;;;9.88;7.15;;;20.60;99.90;;;;;;5069823;28;20029;-67
2022/05/08 11:46:34;;;;;;;12.00;7.60;;;20.60;99.90;;;;;;5049135;28;20136;-68
2022/05/08 11:49:01;;;;;;;11.13;6.80;;;20.30;99.90;;;;;;5065447;28;20510;-69
2022/05/08 11:51:40;;;;;;;10.32;6.38;;;20.40;99.90;;;;;;5069762;28;20611;-69
2022/05/08 11:54:16;;;;;;;14.07;6.68;;;20.80;99.90;;;;;;5066383;28;20028;-66
2022/05/08 11:56:42;;;;;;;11.70;6.60;;;20.80;99.90;;;;;;5059354;28;20033;-70
2022/05/08 11:59:16;;;;;;;11.50;7.32;;;20.60;99.90;;;;;;5057404;28;20491;-66
2022/05/08 12:01:48;;;;;;;13.32;6.70;;;20.10;99.90;;;;;;5067403;28;20029;-68
2022/05/08 12:04:22;;;;;;;9.27;5.93;;;19.80;99.90;;;;;;5063535;28;20044;-69
2022/05/08 12:07:08;;;;;;;9.85;6.60;;;19.70;99.90;;;;;;5061751;28;20392;-67
2022/05/08 12:09:55;;;;;;;13.25;7.47;;;19.70;99.90;;;;;;5070392;28;20062;-69
2022/05/08 12:12:35;;;;;;;11.45;7.18;;;19.60;99.90;;;;;;5069693;28;20031;-67
2022/05/08 12:15:07;;;;;;;9.70;7.03;;;19.70;99.90;;;;;;5062845;28;20028;-69
2022/05/08 12:17:42;;;;;;;11.07;7.25;;;19.70;99.90;;;;;;5069740;28;20028;-68
2022/05/08 12:20:08;;;;;;;9.40;6.82;;;19.60;99.90;;;;;;5069895;28;20032;-67
2022/05/08 12:22:34;;;;;;;14.05;7.25;;;19.50;99.90;;;;;;5061299;28;20028;-70
2022/05/08 12:25:00;;;;;;;13.43;6.60;;;19.50;99.90;;;;;;5069065;28;20479;-68
2022/05/08 12:27:26;;;;;;;10.18;7.03;;;19.70;99.90;;;;;;5069009;28;20028;-68
2022/05/08 12:29:53;;;;;;;11.55;6.43;;;20.00;99.90;;;;;;5069622;28;20125;-69
2022/05/08 12:32:20;;;;;;;12.45;6.80;;;20.40;99.90;;;;;;5069043;28;20387;-69
2022/05/08 12:34:46;;;;;;;11.43;6.38;;;20.40;99.90;;;;;;5068468;28;20082;-67
2022/05/08 12:37:13;;;;;;;10.82;6.40;;;20.20;99.90;;;;;;5068658;28;20477;-68
2022/05/08 12:39:40;;;;;;;11.40;6.43;;;19.90;99.90;;;;;;5069845;28;20427;-67
2022/05/08 12:42:06;;;;;;;9.93;6.45;;;19.80;99.90;;;;;;5061258;28;20028;-67
2022/05/08 12:44:36;;;;;;;13.48;6.97;;;19.40;99.90;;;;;;5068774;28;20146;-69
2022/05/08 12:47:04;;;;;;;12.13;7.10;;;19.00;99.90;;;;;;5069605;28;20036;-67
2022/05/08 12:49:29;;;;;;;10.27;7.15;;;18.70;99.90;;;;;;5069171;28;20039;-68
2022/05/08 12:51:55;;;;;;;12.43;7.13;;;18.60;99.90;;;;;;5061317;28;20033;-67
2022/05/08 12:54:21;;;;;;;11.75;7.30;;;18.40;99.90;;;;;;5064698;28;20465;-69
2022/05/08 12:56:46;;;;;;;12.30;6.35;;;18.40;99.90;;;;;;5069237;28;20028;-68
2022/05/08 13:01:57;;;;;;;10.88;7.32;;;18.40;99.90;;;;;;5065470;28;20078;-67